createdAt,value
2019-05-02T00:01:38.409Z,62.80
2019-05-02T00:04:12.459Z,62.40
2019-05-02T00:06:42.969Z,62.10
2019-05-02T00:09:11.309Z,61.50
2019-05-02T00:11:41.201Z,62.30
2019-05-02T00:14:11.317Z,62.60
2019-05-02T00:16:45.222Z,62.50
2019-05-02T00:19:14.130Z,62.30
2019-05-02T00:21:44.135Z,62.50
2019-05-02T00:24:14.098Z,62.20
2019-05-02T00:26:44.016Z,61.80
2019-05-02T00:29:13.702Z,62.20
2019-05-02T00:31:47.004Z,62.00
2019-05-02T00:34:14.590Z,61.70
2019-05-02T00:36:44.532Z,61.90
2019-05-02T00:39:15.188Z,61.90
2019-05-02T00:41:44.952Z,61.70
2019-05-02T00:44:14.557Z,61.90
2019-05-02T00:46:44.198Z,62.20
2019-05-02T00:49:13.817Z,62.20
2019-05-02T00:51:43.445Z,61.90
2019-05-02T00:54:13.163Z,60.80
2019-05-02T00:56:44.230Z,61.00
2019-05-02T00:59:14.120Z,61.10
2019-05-02T01:01:51.773Z,61.10
2019-05-02T01:04:29.069Z,61.20
2019-05-02T01:06:58.889Z,61.30
2019-05-02T01:09:29.041Z,60.90
2019-05-02T01:12:03.066Z,61.50
2019-05-02T01:14:31.869Z,62.00
2019-05-02T01:17:01.774Z,62.40
2019-05-02T01:19:31.363Z,63.00
2019-05-02T01:22:00.982Z,63.80
2019-05-02T01:24:34.065Z,64.00
2019-05-02T01:27:20.300Z,63.90
2019-05-02T01:30:01.612Z,65.00
2019-05-02T01:32:48.754Z,65.30
2019-05-02T01:35:34.999Z,65.30
2019-05-02T01:38:26.420Z,65.90
2019-05-02T01:40:54.896Z,66.10
2019-05-02T01:43:28.057Z,66.40
2019-05-02T01:45:57.921Z,66.40
2019-05-02T01:48:28.210Z,66.80
2019-05-02T01:50:57.936Z,66.90
2019-05-02T01:53:29.199Z,66.90
2019-05-02T01:55:59.350Z,67.10
2019-05-02T01:58:29.067Z,68.10
2019-05-02T02:00:58.821Z,67.80
2019-05-02T02:03:28.690Z,67.80
2019-05-02T02:05:58.395Z,67.20
2019-05-02T02:08:32.620Z,68.60
2019-05-02T02:10:59.316Z,68.60
2019-05-02T02:13:31.369Z,68.50
2019-05-02T02:16:04.325Z,68.80
2019-05-02T02:18:34.572Z,68.70
2019-05-02T02:21:14.071Z,68.70
2019-05-02T02:23:54.429Z,68.50
2019-05-02T02:26:24.936Z,68.50
2019-05-02T02:28:55.039Z,68.20
2019-05-02T02:31:24.745Z,68.90
2019-05-02T02:33:54.312Z,70.00
2019-05-02T02:36:32.142Z,69.70
2019-05-02T02:38:55.212Z,69.00
2019-05-02T02:41:24.801Z,69.30
2019-05-02T02:44:15.784Z,69.30
2019-05-02T02:46:46.332Z,68.80
2019-05-02T02:49:21.703Z,68.80
2019-05-02T02:51:47.411Z,68.90
2019-05-02T02:54:17.117Z,68.70
2019-05-02T02:56:47.305Z,68.60
2019-05-02T02:59:19.397Z,69.10
2019-05-02T03:01:48.422Z,69.20
2019-05-02T03:04:18.552Z,69.60
2019-05-02T03:06:48.315Z,69.70
2019-05-02T03:09:20.397Z,70.20
2019-05-02T03:12:08.177Z,71.50
2019-05-02T03:14:47.161Z,71.90
2019-05-02T03:17:13.574Z,72.60
2019-05-02T03:19:43.186Z,72.90
2019-05-02T03:22:12.814Z,73.40
2019-05-02T03:24:44.214Z,73.80
2019-05-02T03:27:13.768Z,75.40
2019-05-02T03:29:44.483Z,75.10
2019-05-02T03:32:30.187Z,76.10
2019-05-02T03:34:51.727Z,77.80
2019-05-02T03:37:18.033Z,77.80
2019-05-02T03:39:49.530Z,77.30
2019-05-02T03:42:18.958Z,78.40
2019-05-02T03:44:54.895Z,77.30
2019-05-02T03:47:19.824Z,75.50
2019-05-02T03:49:52.238Z,75.40
2019-05-02T03:52:20.935Z,76.00
2019-05-02T03:54:52.581Z,76.00
2019-05-02T03:57:32.294Z,76.60
2019-05-02T03:59:53.675Z,75.40
2019-05-02T04:02:24.430Z,74.20
2019-05-02T04:05:00.013Z,73.80
2019-05-02T04:07:25.881Z,73.10
2019-05-02T04:09:55.848Z,73.40
2019-05-02T04:12:26.291Z,75.90
2019-05-02T04:14:57.176Z,77.60
2019-05-02T04:17:28.813Z,78.20
2019-05-02T04:19:58.832Z,78.50
2019-05-02T04:22:28.921Z,78.90
2019-05-02T04:24:58.635Z,79.40
2019-05-02T04:27:34.073Z,80.30
2019-05-02T04:30:09.646Z,80.30
2019-05-02T04:32:31.531Z,79.80
2019-05-02T04:35:01.388Z,80.30
2019-05-02T04:37:34.498Z,79.10
2019-05-02T04:40:03.502Z,79.30
2019-05-02T04:42:34.060Z,80.40
2019-05-02T04:45:20.698Z,79.30
2019-05-02T04:47:34.967Z,78.50
2019-05-02T04:50:07.654Z,77.40
2019-05-02T04:52:38.413Z,79.00
2019-05-02T04:55:21.121Z,81.00
2019-05-02T04:57:46.873Z,80.90
2019-05-02T05:00:11.843Z,80.90
2019-05-02T05:02:41.656Z,79.70
2019-05-02T05:05:11.357Z,80.10
2019-05-02T05:07:46.072Z,79.60
2019-05-02T05:10:12.409Z,81.30
2019-05-02T05:12:42.114Z,83.00
2019-05-02T05:15:15.291Z,83.80
2019-05-02T05:17:43.019Z,84.20
2019-05-02T05:20:15.630Z,84.30
2019-05-02T05:22:45.560Z,86.30
2019-05-02T05:25:21.438Z,86.50
2019-05-02T05:27:52.631Z,85.90
2019-05-02T05:30:22.642Z,86.80
2019-05-02T05:32:52.347Z,85.10
2019-05-02T05:35:22.217Z,85.00
2019-05-02T05:37:53.196Z,82.50
2019-05-02T05:40:28.190Z,82.70
2019-05-02T05:42:54.575Z,82.00
2019-05-02T05:45:24.491Z,81.80
2019-05-02T05:47:57.569Z,82.00
2019-05-02T05:50:27.493Z,81.80
2019-05-02T05:52:59.350Z,80.40
2019-05-02T05:55:30.094Z,79.50
2019-05-02T05:58:09.093Z,79.20
2019-05-02T06:00:31.529Z,78.60
2019-05-02T06:03:10.195Z,78.90
2019-05-02T06:05:33.126Z,79.50
2019-05-02T06:08:03.593Z,78.20
2019-05-02T06:10:33.249Z,78.30
2019-05-02T06:13:05.313Z,77.80
2019-05-02T06:15:39.032Z,77.10
2019-05-02T06:18:06.289Z,77.70
2019-05-02T06:20:35.948Z,76.10
2019-05-02T06:23:05.554Z,75.10
2019-05-02T06:25:36.740Z,75.30
2019-05-02T06:28:07.084Z,73.80
2019-05-02T06:30:36.727Z,74.60
2019-05-02T06:33:06.570Z,74.10
2019-05-02T06:35:36.175Z,73.30
2019-05-02T06:38:05.871Z,73.30
2019-05-02T06:40:39.451Z,73.20
2019-05-02T06:43:09.592Z,73.80
2019-05-02T06:45:39.661Z,74.20
2019-05-02T06:48:16.857Z,73.90
2019-05-02T06:50:40.844Z,73.50
2019-05-02T06:53:11.217Z,74.40
2019-05-02T06:55:41.215Z,73.30
2019-05-02T06:58:10.909Z,73.50
2019-05-02T07:00:56.498Z,73.70
2019-05-02T07:03:12.069Z,74.50
2019-05-02T07:05:41.726Z,75.30
2019-05-02T07:08:13.530Z,77.40
2019-05-02T07:10:44.930Z,77.40
2019-05-02T07:13:14.995Z,76.80
2019-05-02T07:16:10.600Z,75.70
2019-05-02T07:18:49.656Z,75.60
2019-05-02T07:21:23.370Z,76.80
2019-05-02T07:23:53.800Z,75.00
2019-05-02T07:26:23.285Z,73.60
2019-05-02T07:28:53.105Z,73.90
2019-05-02T07:31:22.767Z,73.00
2019-05-02T07:33:52.364Z,73.10
2019-05-02T07:36:22.049Z,74.30
2019-05-02T07:38:51.676Z,75.50
2019-05-02T07:41:24.196Z,74.60
2019-05-02T07:43:56.344Z,74.00
2019-05-02T07:46:23.831Z,73.90
2019-05-02T07:48:54.478Z,72.80
2019-05-02T07:51:24.509Z,72.90
2019-05-02T07:53:55.765Z,72.30
2019-05-02T07:56:25.516Z,71.00
2019-05-02T07:58:55.163Z,69.80
2019-05-02T08:01:24.798Z,69.50
2019-05-02T08:03:54.386Z,68.70
2019-05-02T08:06:34.648Z,69.10
2019-05-02T08:08:55.205Z,68.10
2019-05-02T08:11:24.972Z,68.30
2019-05-02T08:13:55.780Z,68.20
2019-05-02T08:16:27.313Z,68.10
2019-05-02T08:19:01.291Z,69.30
2019-05-02T08:21:32.660Z,70.70
2019-05-02T08:24:03.500Z,70.10
2019-05-02T08:27:01.365Z,69.60
2019-05-02T08:29:31.078Z,69.70
2019-05-02T08:32:00.784Z,69.90
2019-05-02T08:34:32.302Z,70.00
2019-05-02T08:37:03.349Z,70.10
2019-05-02T08:39:34.856Z,70.60
2019-05-02T08:42:05.292Z,69.80
2019-05-02T08:44:34.912Z,69.60
2019-05-02T08:47:04.624Z,68.60
2019-05-02T08:49:34.267Z,68.80
2019-05-02T08:52:03.857Z,68.70
2019-05-02T08:54:34.136Z,68.70
2019-05-02T08:57:03.920Z,67.30
2019-05-02T08:59:33.848Z,67.40
2019-05-02T09:02:03.599Z,66.20
2019-05-02T09:04:36.342Z,66.10
2019-05-02T09:07:06.264Z,65.90
2019-05-02T09:09:35.880Z,67.70
2019-05-02T09:12:12.157Z,68.60
2019-05-02T09:14:36.734Z,67.50
2019-05-02T09:17:13.527Z,68.40
2019-05-02T09:19:37.635Z,68.40
2019-05-02T09:22:12.092Z,69.30
2019-05-02T09:24:38.664Z,69.50
2019-05-02T09:27:08.522Z,67.90
2019-05-02T09:29:44.439Z,67.40
2019-05-02T09:32:09.410Z,66.20
2019-05-02T09:34:39.064Z,65.90
2019-05-02T09:37:08.737Z,64.70
2019-05-02T09:39:38.360Z,64.60
2019-05-02T09:42:12.449Z,63.50
2019-05-02T09:44:39.225Z,63.30
2019-05-02T09:47:12.729Z,63.40
2019-05-02T09:49:48.935Z,61.80
2019-05-02T09:52:13.312Z,60.40
2019-05-02T09:54:46.100Z,60.30
2019-05-02T09:57:14.697Z,57.50
2019-05-02T09:59:50.287Z,58.00
2019-05-02T10:02:15.586Z,58.00
2019-05-02T10:04:45.286Z,56.40
2019-05-02T10:07:15.504Z,56.00
2019-05-02T10:09:45.314Z,54.50
2019-05-02T10:12:14.907Z,53.30
2019-05-02T10:14:44.675Z,51.40
2019-05-02T10:17:14.231Z,51.80
2019-05-02T10:19:49.171Z,52.40
2019-05-02T10:22:15.467Z,50.20
2019-05-02T10:24:45.070Z,49.60
2019-05-02T10:27:15.155Z,49.00
2019-05-02T10:29:44.961Z,47.90
2019-05-02T10:32:16.635Z,47.20
2019-05-02T10:34:47.540Z,45.00
2019-05-02T10:37:18.408Z,46.20
2019-05-02T10:39:47.996Z,44.70
2019-05-02T10:42:17.612Z,43.10
2019-05-02T10:44:47.495Z,43.40
2019-05-02T10:47:17.106Z,43.30
2019-05-02T10:49:52.735Z,43.80
2019-05-02T10:52:29.562Z,41.50
2019-05-02T10:54:53.669Z,41.60
2019-05-02T10:57:23.349Z,41.90
2019-05-02T10:59:56.035Z,42.70
2019-05-02T11:02:52.572Z,42.70
2019-05-02T11:05:26.501Z,41.50
2019-05-02T11:07:56.865Z,40.40
2019-05-02T11:10:26.161Z,40.90
2019-05-02T11:13:10.022Z,41.20
2019-05-02T11:15:57.415Z,41.20
2019-05-02T11:18:40.392Z,40.40
2019-05-02T11:21:06.802Z,38.30
2019-05-02T11:23:32.821Z,35.80
2019-05-02T11:26:02.904Z,33.90
2019-05-02T11:28:32.562Z,35.60
2019-05-02T11:31:06.434Z,34.70
2019-05-02T11:33:33.720Z,33.80
2019-05-02T11:36:03.380Z,33.30
2019-05-02T11:38:33.140Z,32.80
2019-05-02T11:41:02.907Z,31.10
2019-05-02T11:43:32.663Z,29.60
2019-05-02T11:46:07.131Z,30.60
2019-05-02T11:48:33.681Z,29.80
2019-05-02T11:51:07.380Z,28.50
2019-05-02T11:53:34.642Z,27.70
2019-05-02T11:56:07.482Z,26.80
2019-05-02T11:58:42.334Z,26.10
2019-05-02T12:01:09.477Z,26.00
2019-05-02T12:03:45.701Z,25.90
2019-05-02T12:06:19.496Z,24.90
2019-05-02T12:08:49.333Z,24.70
2019-05-02T12:11:17.969Z,24.50
2019-05-02T12:13:52.896Z,24.40
2019-05-02T12:16:19.043Z,25.40
2019-05-02T12:18:48.930Z,25.20
2019-05-02T12:21:18.685Z,26.20
2019-05-02T12:23:48.347Z,26.60
2019-05-02T12:26:18.050Z,26.50
2019-05-02T12:28:47.699Z,27.80
2019-05-02T12:31:27.046Z,26.50
2019-05-02T12:33:57.606Z,25.30
2019-05-02T12:36:27.472Z,24.50
2019-05-02T12:38:57.423Z,24.60
2019-05-02T12:41:27.027Z,24.10
2019-05-02T12:43:56.671Z,22.60
2019-05-02T12:46:28.426Z,22.40
2019-05-02T12:48:57.530Z,21.70
2019-05-02T12:51:27.687Z,21.70
2019-05-02T12:53:57.321Z,20.80
2019-05-02T12:56:26.993Z,21.20
2019-05-02T12:58:56.574Z,20.30
2019-05-02T13:01:26.203Z,19.70
2019-05-02T13:04:12.460Z,19.50
2019-05-02T13:06:42.355Z,18.80
2019-05-02T13:09:12.933Z,18.60
2019-05-02T13:12:00.251Z,20.00
2019-05-02T13:14:32.014Z,20.20
2019-05-02T13:17:05.609Z,19.00
2019-05-02T13:19:40.154Z,18.40
2019-05-02T13:22:33.308Z,17.70
2019-05-02T13:25:05.933Z,16.60
2019-05-02T13:27:43.254Z,17.00
2019-05-02T13:30:12.211Z,17.50
2019-05-02T13:32:43.589Z,17.40
2019-05-02T13:35:24.205Z,16.80
2019-05-02T13:37:56.326Z,17.00
2019-05-02T13:40:32.147Z,16.20
2019-05-02T13:43:01.877Z,17.00
2019-05-02T13:45:49.167Z,16.40
2019-05-02T13:48:18.908Z,17.20
2019-05-02T13:50:49.037Z,16.80
2019-05-02T13:53:18.943Z,15.30
2019-05-02T13:55:54.713Z,15.00
2019-05-02T13:58:29.125Z,15.00
2019-05-02T14:00:55.955Z,14.80
2019-05-02T14:03:25.832Z,14.40
2019-05-02T14:05:55.539Z,13.20
2019-05-02T14:08:36.818Z,13.90
2019-05-02T14:11:31.716Z,14.30
2019-05-02T14:14:01.962Z,14.20
2019-05-02T14:16:32.098Z,14.60
2019-05-02T14:19:02.954Z,15.00
2019-05-02T14:21:32.887Z,15.40
2019-05-02T14:24:02.523Z,15.80
2019-05-02T14:26:33.179Z,16.90
2019-05-02T14:29:07.277Z,16.70
2019-05-02T14:31:34.627Z,15.80
2019-05-02T14:34:24.586Z,16.70
2019-05-02T14:36:58.875Z,15.80
2019-05-02T14:39:25.552Z,15.90
2019-05-02T14:41:55.478Z,15.70
2019-05-02T14:44:28.730Z,14.30
2019-05-02T14:46:56.604Z,12.70
2019-05-02T14:49:26.409Z,11.20
2019-05-02T14:51:57.320Z,9.30
2019-05-02T14:54:27.851Z,9.80
2019-05-02T14:57:08.730Z,8.90
2019-05-02T14:59:38.475Z,9.40
2019-05-02T15:02:13.053Z,8.90
2019-05-02T15:04:44.391Z,9.10
2019-05-02T15:07:17.613Z,9.10
2019-05-02T15:09:45.417Z,9.90
2019-05-02T15:12:18.920Z,10.70
2019-05-02T15:14:49.875Z,11.70
2019-05-02T15:17:18.007Z,11.90
2019-05-02T15:19:47.821Z,11.80
2019-05-02T15:22:17.579Z,12.00
2019-05-02T15:24:47.568Z,12.60
2019-05-02T15:27:17.985Z,12.50
2019-05-02T15:29:54.812Z,13.90
2019-05-02T15:32:44.922Z,14.20
2019-05-02T15:35:31.685Z,14.70
2019-05-02T15:38:06.389Z,14.80
2019-05-02T15:40:43.408Z,15.70
2019-05-02T15:43:09.559Z,15.60
2019-05-02T15:45:43.522Z,16.50
2019-05-02T15:48:16.012Z,16.40
2019-05-02T15:50:50.221Z,16.10
2019-05-02T15:53:52.444Z,17.00
2019-05-02T15:56:21.341Z,17.90
2019-05-02T15:58:52.147Z,29.50
2019-05-02T16:01:41.260Z,40.70
2019-05-02T16:04:12.781Z,52.10
2019-05-02T16:06:42.977Z,60.50
2019-05-02T16:09:12.646Z,67.00
2019-05-02T16:11:43.477Z,69.80
2019-05-02T16:14:13.182Z,71.60
2019-05-02T16:16:45.231Z,71.20
2019-05-02T16:19:23.156Z,71.70
2019-05-02T16:21:52.039Z,71.90
2019-05-02T16:24:23.526Z,72.00
2019-05-02T16:26:56.893Z,71.30
2019-05-02T16:29:28.478Z,70.10
2019-05-02T16:32:06.445Z,72.70
2019-05-02T16:34:54.202Z,73.80
2019-05-02T16:37:22.542Z,73.00
2019-05-02T16:39:52.394Z,71.30
2019-05-02T16:42:22.713Z,71.30
2019-05-02T16:44:54.702Z,71.30
2019-05-02T16:47:24.027Z,71.40
2019-05-02T16:49:56.383Z,71.70
2019-05-02T16:52:25.508Z,72.60
2019-05-02T16:54:55.181Z,72.80
2019-05-02T16:57:24.958Z,74.00
2019-05-02T17:00:01.464Z,73.20
2019-05-02T17:02:26.101Z,72.00
2019-05-02T17:05:00.236Z,73.80
2019-05-02T17:07:45.616Z,74.10
2019-05-02T17:10:23.885Z,73.40
2019-05-02T17:12:57.061Z,72.30
2019-05-02T17:15:35.249Z,71.80
2019-05-02T17:18:12.156Z,71.80
2019-05-02T17:20:36.547Z,73.90
2019-05-02T17:23:07.788Z,75.20
2019-05-02T17:25:38.029Z,75.60
2019-05-02T17:28:12.722Z,76.40
2019-05-02T17:30:41.104Z,77.60
2019-05-02T17:33:15.008Z,78.70
2019-05-02T17:35:49.347Z,80.70
2019-05-02T17:38:18.977Z,81.00
2019-05-02T17:40:46.460Z,82.30
2019-05-02T17:43:16.029Z,82.20
2019-05-02T17:45:45.674Z,83.00
2019-05-02T17:48:17.518Z,83.50
2019-05-02T17:51:05.610Z,84.20
2019-05-02T17:53:41.082Z,84.50
2019-05-02T17:56:06.963Z,84.50
2019-05-02T17:58:36.569Z,84.20
2019-05-02T18:01:09.503Z,84.10
2019-05-02T18:03:39.049Z,84.60
2019-05-02T18:06:13.287Z,83.80
2019-05-02T18:08:41.722Z,83.50
2019-05-02T18:11:12.708Z,83.10
2019-05-02T18:13:42.409Z,82.70
2019-05-02T18:16:15.015Z,81.80
2019-05-02T18:18:46.646Z,82.10
2019-05-02T18:21:17.700Z,81.50
2019-05-02T18:23:45.788Z,80.40
2019-05-02T18:26:15.540Z,80.70
2019-05-02T18:28:48.609Z,80.00
2019-05-02T18:31:16.488Z,79.70
2019-05-02T18:33:46.308Z,78.80
2019-05-02T18:36:17.367Z,78.30
2019-05-02T18:38:54.241Z,78.40
2019-05-02T18:41:19.193Z,78.40
2019-05-02T18:43:49.036Z,78.50
2019-05-02T18:46:20.022Z,78.10
2019-05-02T18:48:51.756Z,78.20
2019-05-02T18:51:21.812Z,79.10
2019-05-02T18:53:52.951Z,79.70
2019-05-02T18:56:23.004Z,79.30
2019-05-02T18:58:53.611Z,79.20
2019-05-02T19:01:23.492Z,78.60
2019-05-02T19:03:56.183Z,79.20
2019-05-02T19:06:27.983Z,79.60
2019-05-02T19:09:02.113Z,79.40
2019-05-02T19:11:35.171Z,80.00
2019-05-02T19:14:03.498Z,79.70
2019-05-02T19:16:33.123Z,80.90
2019-05-02T19:19:02.816Z,81.80
2019-05-02T19:21:36.140Z,82.10
2019-05-02T19:24:04.343Z,82.70
2019-05-02T19:26:34.042Z,83.60
2019-05-02T19:29:15.682Z,84.50
2019-05-02T19:31:52.496Z,84.20
2019-05-02T19:34:26.601Z,84.90
2019-05-02T19:36:58.080Z,84.80
2019-05-02T19:39:29.213Z,83.60
2019-05-02T19:41:58.839Z,84.30
2019-05-02T19:44:29.623Z,84.50
2019-05-02T19:46:59.858Z,85.60
2019-05-02T19:49:29.437Z,85.60
2019-05-02T19:51:59.067Z,86.10
2019-05-02T19:54:33.554Z,85.90
2019-05-02T19:57:03.760Z,85.80
2019-05-02T19:59:33.443Z,85.90
2019-05-02T20:02:06.087Z,85.70
2019-05-02T20:04:42.178Z,85.60
2019-05-02T20:07:08.916Z,87.10
2019-05-02T20:09:45.636Z,87.70
2019-05-02T20:12:15.022Z,87.80
2019-05-02T20:14:43.625Z,87.30
2019-05-02T20:17:19.991Z,86.70
2019-05-02T20:19:49.955Z,86.30
2019-05-02T20:22:22.262Z,85.40
2019-05-02T20:25:00.605Z,84.30
2019-05-02T20:27:29.891Z,83.70
2019-05-02T20:29:59.696Z,84.70
2019-05-02T20:32:29.692Z,85.50
2019-05-02T20:34:59.750Z,85.80
2019-05-02T20:37:29.652Z,85.90
2019-05-02T20:39:59.435Z,86.60
2019-05-02T20:42:29.053Z,87.60
2019-05-02T20:44:58.895Z,88.00
2019-05-02T20:47:28.611Z,87.90
2019-05-02T20:49:58.254Z,87.90
2019-05-02T20:52:28.127Z,87.80
2019-05-02T20:54:58.258Z,87.20
2019-05-02T20:57:28.097Z,87.10
2019-05-02T20:59:58.013Z,87.70
2019-05-02T21:02:27.773Z,87.50
2019-05-02T21:04:57.516Z,87.10
2019-05-02T21:07:49.415Z,87.30
2019-05-02T21:10:23.134Z,87.40
2019-05-02T21:12:52.814Z,86.70
2019-05-02T21:15:24.080Z,86.70
2019-05-02T21:17:53.954Z,87.00
2019-05-02T21:20:23.616Z,86.80
2019-05-02T21:22:53.487Z,86.40
2019-05-02T21:25:23.434Z,86.60
2019-05-02T21:27:53.108Z,86.80
2019-05-02T21:30:26.539Z,86.80
2019-05-02T21:32:56.263Z,87.30
2019-05-02T21:35:26.058Z,87.20
2019-05-02T21:37:56.026Z,86.70
2019-05-02T21:40:26.048Z,87.00
2019-05-02T21:42:55.713Z,88.50
2019-05-02T21:45:25.334Z,88.40
2019-05-02T21:47:54.968Z,87.80
2019-05-02T21:50:39.323Z,87.80
2019-05-02T21:53:22.075Z,88.00
2019-05-02T21:56:12.182Z,86.90
2019-05-02T21:59:02.799Z,85.80
2019-05-02T22:01:33.002Z,84.50
2019-05-02T22:04:03.039Z,79.30
2019-05-02T22:06:32.784Z,79.60
2019-05-02T22:09:03.077Z,75.50
2019-05-02T22:11:33.124Z,75.70
2019-05-02T22:14:02.789Z,75.50
2019-05-02T22:16:32.779Z,74.50
2019-05-02T22:19:03.048Z,73.10
2019-05-02T22:21:35.138Z,72.10
2019-05-02T22:24:11.079Z,69.40
2019-05-02T22:26:36.063Z,68.20
2019-05-02T22:29:05.902Z,70.40
2019-05-02T22:31:35.534Z,70.50
2019-05-02T22:34:05.194Z,69.90
2019-05-02T22:36:34.794Z,71.30
2019-05-02T22:39:23.332Z,71.20
2019-05-02T22:41:53.259Z,70.90
2019-05-02T22:44:22.889Z,72.30
2019-05-02T22:46:52.851Z,71.00
2019-05-02T22:49:22.676Z,70.70
2019-05-02T22:51:52.358Z,71.80
2019-05-02T22:54:27.789Z,70.70
2019-05-02T22:56:53.308Z,72.70
2019-05-02T22:59:23.949Z,72.90
2019-05-02T23:01:53.812Z,73.90
2019-05-02T23:04:23.649Z,74.50
2019-05-02T23:06:53.521Z,72.80
2019-05-02T23:09:23.502Z,74.00
2019-05-02T23:11:53.162Z,73.70
2019-05-02T23:14:23.072Z,73.60
2019-05-02T23:16:53.037Z,72.70
2019-05-02T23:19:23.213Z,72.60
2019-05-02T23:21:56.305Z,73.30
2019-05-02T23:24:56.955Z,73.10
2019-05-02T23:27:43.051Z,72.60
2019-05-02T23:30:14.462Z,72.90
2019-05-02T23:32:44.101Z,73.40
2019-05-02T23:35:13.978Z,72.70
2019-05-02T23:37:43.704Z,72.10
2019-05-02T23:40:13.325Z,71.60
2019-05-02T23:42:43.316Z,71.20
2019-05-02T23:45:13.062Z,71.10
2019-05-02T23:47:42.713Z,70.90
2019-05-02T23:50:12.721Z,70.60
2019-05-02T23:52:42.333Z,70.80
2019-05-02T23:55:12.319Z,69.80
2019-05-02T23:57:42.234Z,69.90
